sensor_id;sensor_type;location;lat;lon;timestamp;P1;durP1;ratioP1;P2;durP2;ratioP2
5351;SDS011;2698;51.454;6.736;2023-05-13T00:01:58;19.37;;;12.23;;
5351;SDS011;2698;51.454;6.736;2023-05-13T00:04:26;18.60;;;12.60;;
5351;SDS011;2698;51.454;6.736;2023-05-13T00:06:53;19.07;;;12.10;;
5351;SDS011;2698;51.454;6.736;2023-05-13T00:09:20;14.33;;;12.67;;
5351;SDS011;2698;51.454;6.736;2023-05-13T00:11:47;14.43;;;12.60;;
5351;SDS011;2698;51.454;6.736;2023-05-13T00:14:14;17.43;;;13.13;;
5351;SDS011;2698;51.454;6.736;2023-05-13T00:16:41;16.37;;;14.17;;
5351;SDS011;2698;51.454;6.736;2023-05-13T00:19:10;15.70;;;12.30;;
5351;SDS011;2698;51.454;6.736;2023-05-13T00:21:37;23.20;;;12.20;;
5351;SDS011;2698;51.454;6.736;2023-05-13T00:24:06;12.40;;;11.00;;
5351;SDS011;2698;51.454;6.736;2023-05-13T00:26:33;20.70;;;12.77;;
5351;SDS011;2698;51.454;6.736;2023-05-13T00:29:00;14.67;;;10.93;;
5351;SDS011;2698;51.454;6.736;2023-05-13T00:31:27;17.20;;;11.20;;
5351;SDS011;2698;51.454;6.736;2023-05-13T00:33:54;21.30;;;12.67;;
5351;SDS011;2698;51.454;6.736;2023-05-13T00:36:23;17.30;;;11.67;;
5351;SDS011;2698;51.454;6.736;2023-05-13T00:38:51;15.37;;;11.53;;
5351;SDS011;2698;51.454;6.736;2023-05-13T00:41:18;17.37;;;12.30;;
5351;SDS011;2698;51.454;6.736;2023-05-13T00:43:46;18.87;;;12.70;;
5351;SDS011;2698;51.454;6.736;2023-05-13T00:46:13;38.10;;;12.50;;
5351;SDS011;2698;51.454;6.736;2023-05-13T00:48:40;21.10;;;12.23;;
5351;SDS011;2698;51.454;6.736;2023-05-13T00:51:07;17.70;;;11.50;;
5351;SDS011;2698;51.454;6.736;2023-05-13T00:53:36;22.33;;;12.17;;
5351;SDS011;2698;51.454;6.736;2023-05-13T00:56:04;32.13;;;14.17;;
5351;SDS011;2698;51.454;6.736;2023-05-13T00:58:32;19.80;;;13.10;;
5351;SDS011;2698;51.454;6.736;2023-05-13T01:01:01;14.73;;;11.53;;
5351;SDS011;2698;51.454;6.736;2023-05-13T01:03:32;21.40;;;13.00;;
5351;SDS011;2698;51.454;6.736;2023-05-13T01:06:03;18.57;;;12.40;;
5351;SDS011;2698;51.454;6.736;2023-05-13T01:08:34;16.93;;;11.77;;
5351;SDS011;2698;51.454;6.736;2023-05-13T01:11:06;16.33;;;12.30;;
5351;SDS011;2698;51.454;6.736;2023-05-13T01:13:35;16.53;;;11.93;;
5351;SDS011;2698;51.454;6.736;2023-05-13T01:16:09;20.47;;;12.30;;
5351;SDS011;2698;51.454;6.736;2023-05-13T01:18:39;13.67;;;11.20;;
5351;SDS011;2698;51.454;6.736;2023-05-13T01:21:06;15.40;;;13.80;;
5351;SDS011;2698;51.454;6.736;2023-05-13T01:23:35;13.53;;;12.07;;
5351;SDS011;2698;51.454;6.736;2023-05-13T01:26:03;15.40;;;11.70;;
5351;SDS011;2698;51.454;6.736;2023-05-13T01:28:30;18.17;;;12.10;;
5351;SDS011;2698;51.454;6.736;2023-05-13T01:30:57;23.97;;;12.13;;
5351;SDS011;2698;51.454;6.736;2023-05-13T01:33:24;20.97;;;13.40;;
5351;SDS011;2698;51.454;6.736;2023-05-13T01:35:51;20.30;;;12.83;;
5351;SDS011;2698;51.454;6.736;2023-05-13T01:38:19;19.23;;;13.70;;
5351;SDS011;2698;51.454;6.736;2023-05-13T01:40:47;18.70;;;12.90;;
5351;SDS011;2698;51.454;6.736;2023-05-13T01:43:14;13.83;;;12.50;;
5351;SDS011;2698;51.454;6.736;2023-05-13T01:45:42;18.77;;;13.53;;
5351;SDS011;2698;51.454;6.736;2023-05-13T01:48:09;24.27;;;13.00;;
5351;SDS011;2698;51.454;6.736;2023-05-13T01:50:36;16.10;;;12.23;;
5351;SDS011;2698;51.454;6.736;2023-05-13T01:53:03;14.50;;;13.10;;
5351;SDS011;2698;51.454;6.736;2023-05-13T01:55:31;13.90;;;12.50;;
5351;SDS011;2698;51.454;6.736;2023-05-13T01:57:59;14.37;;;12.87;;
5351;SDS011;2698;51.454;6.736;2023-05-13T02:03:30;19.40;;;13.70;;
5351;SDS011;2698;51.454;6.736;2023-05-13T02:05:57;15.60;;;13.20;;
5351;SDS011;2698;51.454;6.736;2023-05-13T02:08:24;19.43;;;14.13;;
5351;SDS011;2698;51.454;6.736;2023-05-13T02:10:54;15.70;;;12.90;;
5351;SDS011;2698;51.454;6.736;2023-05-13T02:13:23;24.10;;;13.10;;
5351;SDS011;2698;51.454;6.736;2023-05-13T02:15:50;17.10;;;13.27;;
5351;SDS011;2698;51.454;6.736;2023-05-13T02:18:17;16.57;;;12.47;;
5351;SDS011;2698;51.454;6.736;2023-05-13T02:20:45;19.47;;;13.50;;
5351;SDS011;2698;51.454;6.736;2023-05-13T02:23:12;16.27;;;13.87;;
5351;SDS011;2698;51.454;6.736;2023-05-13T02:25:40;17.23;;;13.30;;
5351;SDS011;2698;51.454;6.736;2023-05-13T02:28:07;16.93;;;14.17;;
5351;SDS011;2698;51.454;6.736;2023-05-13T02:30:35;24.90;;;12.50;;
5351;SDS011;2698;51.454;6.736;2023-05-13T02:33:02;17.40;;;13.77;;
5351;SDS011;2698;51.454;6.736;2023-05-13T02:35:29;20.23;;;14.47;;
5351;SDS011;2698;51.454;6.736;2023-05-13T02:37:56;19.23;;;13.90;;
5351;SDS011;2698;51.454;6.736;2023-05-13T02:40:24;22.00;;;15.07;;
5351;SDS011;2698;51.454;6.736;2023-05-13T02:42:51;15.60;;;12.30;;
5351;SDS011;2698;51.454;6.736;2023-05-13T02:45:18;13.73;;;12.33;;
5351;SDS011;2698;51.454;6.736;2023-05-13T02:47:46;19.63;;;13.07;;
5351;SDS011;2698;51.454;6.736;2023-05-13T02:50:13;16.30;;;13.63;;
5351;SDS011;2698;51.454;6.736;2023-05-13T02:52:40;12.57;;;11.23;;
5351;SDS011;2698;51.454;6.736;2023-05-13T02:55:08;18.60;;;12.90;;
5351;SDS011;2698;51.454;6.736;2023-05-13T02:57:35;22.60;;;13.40;;
5351;SDS011;2698;51.454;6.736;2023-05-13T03:00:03;18.13;;;13.20;;
5351;SDS011;2698;51.454;6.736;2023-05-13T03:02:30;15.37;;;13.70;;
5351;SDS011;2698;51.454;6.736;2023-05-13T03:04:58;20.93;;;12.60;;
5351;SDS011;2698;51.454;6.736;2023-05-13T03:07:25;21.67;;;13.27;;
5351;SDS011;2698;51.454;6.736;2023-05-13T03:09:52;19.03;;;13.27;;
5351;SDS011;2698;51.454;6.736;2023-05-13T03:12:20;18.63;;;13.37;;
5351;SDS011;2698;51.454;6.736;2023-05-13T03:14:47;16.30;;;13.70;;
5351;SDS011;2698;51.454;6.736;2023-05-13T03:17:14;19.10;;;13.77;;
5351;SDS011;2698;51.454;6.736;2023-05-13T03:19:41;24.27;;;13.10;;
5351;SDS011;2698;51.454;6.736;2023-05-13T03:22:10;18.93;;;13.60;;
5351;SDS011;2698;51.454;6.736;2023-05-13T03:24:37;16.63;;;13.37;;
5351;SDS011;2698;51.454;6.736;2023-05-13T03:27:04;19.27;;;13.80;;
5351;SDS011;2698;51.454;6.736;2023-05-13T03:29:31;21.27;;;12.93;;
5351;SDS011;2698;51.454;6.736;2023-05-13T03:31:58;15.40;;;13.63;;
5351;SDS011;2698;51.454;6.736;2023-05-13T03:34:25;23.73;;;12.77;;
5351;SDS011;2698;51.454;6.736;2023-05-13T03:36:52;22.30;;;14.00;;
5351;SDS011;2698;51.454;6.736;2023-05-13T03:39:21;19.30;;;13.60;;
5351;SDS011;2698;51.454;6.736;2023-05-13T03:41:49;20.43;;;14.30;;
5351;SDS011;2698;51.454;6.736;2023-05-13T03:44:17;16.47;;;12.57;;
5351;SDS011;2698;51.454;6.736;2023-05-13T03:46:44;23.00;;;13.90;;
5351;SDS011;2698;51.454;6.736;2023-05-13T03:49:11;14.63;;;13.13;;
5351;SDS011;2698;51.454;6.736;2023-05-13T03:51:38;19.97;;;15.17;;
5351;SDS011;2698;51.454;6.736;2023-05-13T03:54:05;22.47;;;15.87;;
5351;SDS011;2698;51.454;6.736;2023-05-13T03:56:33;25.10;;;14.30;;
5351;SDS011;2698;51.454;6.736;2023-05-13T03:59:00;29.63;;;14.40;;
5351;SDS011;2698;51.454;6.736;2023-05-13T04:01:28;15.70;;;12.90;;
5351;SDS011;2698;51.454;6.736;2023-05-13T04:03:55;21.10;;;13.80;;
5351;SDS011;2698;51.454;6.736;2023-05-13T04:06:22;23.70;;;13.03;;
5351;SDS011;2698;51.454;6.736;2023-05-13T04:08:49;14.33;;;12.80;;
5351;SDS011;2698;51.454;6.736;2023-05-13T04:11:16;24.47;;;13.30;;
5351;SDS011;2698;51.454;6.736;2023-05-13T04:13:45;19.47;;;14.23;;
5351;SDS011;2698;51.454;6.736;2023-05-13T04:16:12;19.00;;;13.80;;
5351;SDS011;2698;51.454;6.736;2023-05-13T04:18:39;16.50;;;13.47;;
5351;SDS011;2698;51.454;6.736;2023-05-13T04:21:06;16.23;;;13.27;;
5351;SDS011;2698;51.454;6.736;2023-05-13T04:23:33;26.07;;;14.23;;
5351;SDS011;2698;51.454;6.736;2023-05-13T04:26:01;18.53;;;13.60;;
5351;SDS011;2698;51.454;6.736;2023-05-13T04:28:28;16.13;;;12.80;;
5351;SDS011;2698;51.454;6.736;2023-05-13T04:30:56;18.93;;;14.43;;
5351;SDS011;2698;51.454;6.736;2023-05-13T04:33:24;29.33;;;13.60;;
5351;SDS011;2698;51.454;6.736;2023-05-13T04:35:51;14.43;;;12.93;;
5351;SDS011;2698;51.454;6.736;2023-05-13T04:38:18;16.13;;;12.63;;
5351;SDS011;2698;51.454;6.736;2023-05-13T04:40:45;15.27;;;13.67;;
5351;SDS011;2698;51.454;6.736;2023-05-13T04:43:12;16.83;;;12.07;;
5351;SDS011;2698;51.454;6.736;2023-05-13T04:45:39;17.70;;;13.00;;
5351;SDS011;2698;51.454;6.736;2023-05-13T04:48:08;22.47;;;13.53;;
5351;SDS011;2698;51.454;6.736;2023-05-13T04:50:35;18.30;;;13.50;;
5351;SDS011;2698;51.454;6.736;2023-05-13T04:53:02;19.40;;;12.83;;
5351;SDS011;2698;51.454;6.736;2023-05-13T04:55:29;18.83;;;13.40;;
5351;SDS011;2698;51.454;6.736;2023-05-13T04:57:56;19.83;;;12.30;;
5351;SDS011;2698;51.454;6.736;2023-05-13T05:00:23;18.37;;;12.40;;
5351;SDS011;2698;51.454;6.736;2023-05-13T05:02:50;21.60;;;12.97;;
5351;SDS011;2698;51.454;6.736;2023-05-13T05:05:19;15.57;;;11.60;;
5351;SDS011;2698;51.454;6.736;2023-05-13T05:07:46;14.47;;;12.97;;
5351;SDS011;2698;51.454;6.736;2023-05-13T05:10:13;16.03;;;12.83;;
5351;SDS011;2698;51.454;6.736;2023-05-13T05:12:40;19.37;;;14.40;;
5351;SDS011;2698;51.454;6.736;2023-05-13T05:15:07;17.50;;;14.60;;
5351;SDS011;2698;51.454;6.736;2023-05-13T05:17:39;16.13;;;12.67;;
5351;SDS011;2698;51.454;6.736;2023-05-13T05:20:07;23.93;;;12.43;;
5351;SDS011;2698;51.454;6.736;2023-05-13T05:22:35;20.17;;;13.03;;
5351;SDS011;2698;51.454;6.736;2023-05-13T05:25:03;26.60;;;15.70;;
5351;SDS011;2698;51.454;6.736;2023-05-13T05:27:30;25.03;;;17.17;;
5351;SDS011;2698;51.454;6.736;2023-05-13T05:29:57;21.53;;;13.40;;
5351;SDS011;2698;51.454;6.736;2023-05-13T05:32:24;22.07;;;13.80;;
5351;SDS011;2698;51.454;6.736;2023-05-13T05:34:52;18.63;;;13.30;;
5351;SDS011;2698;51.454;6.736;2023-05-13T05:37:19;18.40;;;12.67;;
5351;SDS011;2698;51.454;6.736;2023-05-13T05:39:47;24.90;;;13.80;;
5351;SDS011;2698;51.454;6.736;2023-05-13T05:42:14;19.13;;;12.87;;
5351;SDS011;2698;51.454;6.736;2023-05-13T05:44:41;11.33;;;10.23;;
5351;SDS011;2698;51.454;6.736;2023-05-13T05:47:08;16.53;;;12.00;;
5351;SDS011;2698;51.454;6.736;2023-05-13T05:49:36;16.73;;;11.70;;
5351;SDS011;2698;51.454;6.736;2023-05-13T05:52:03;16.27;;;11.60;;
5351;SDS011;2698;51.454;6.736;2023-05-13T05:54:30;31.10;;;17.20;;
5351;SDS011;2698;51.454;6.736;2023-05-13T05:57:00;33.20;;;16.50;;
5351;SDS011;2698;51.454;6.736;2023-05-13T05:59:27;29.00;;;14.30;;
5351;SDS011;2698;51.454;6.736;2023-05-13T06:01:54;35.60;;;14.17;;
5351;SDS011;2698;51.454;6.736;2023-05-13T06:04:21;20.37;;;15.07;;
5351;SDS011;2698;51.454;6.736;2023-05-13T06:06:48;20.47;;;11.33;;
5351;SDS011;2698;51.454;6.736;2023-05-13T06:09:16;16.80;;;11.13;;
5351;SDS011;2698;51.454;6.736;2023-05-13T06:11:43;17.83;;;10.20;;
5351;SDS011;2698;51.454;6.736;2023-05-13T06:14:11;18.30;;;11.50;;
5351;SDS011;2698;51.454;6.736;2023-05-13T06:16:38;17.00;;;11.73;;
5351;SDS011;2698;51.454;6.736;2023-05-13T06:19:05;15.97;;;12.70;;
5351;SDS011;2698;51.454;6.736;2023-05-13T06:21:32;22.20;;;11.63;;
5351;SDS011;2698;51.454;6.736;2023-05-13T06:23:59;20.70;;;12.50;;
5351;SDS011;2698;51.454;6.736;2023-05-13T06:26:28;16.87;;;11.33;;
5351;SDS011;2698;51.454;6.736;2023-05-13T06:28:55;26.27;;;12.80;;
5351;SDS011;2698;51.454;6.736;2023-05-13T06:31:23;16.30;;;10.57;;
5351;SDS011;2698;51.454;6.736;2023-05-13T06:33:50;17.33;;;10.60;;
5351;SDS011;2698;51.454;6.736;2023-05-13T06:36:17;19.10;;;9.97;;
5351;SDS011;2698;51.454;6.736;2023-05-13T06:38:45;18.03;;;8.87;;
5351;SDS011;2698;51.454;6.736;2023-05-13T06:41:12;11.70;;;9.37;;
5351;SDS011;2698;51.454;6.736;2023-05-13T06:43:39;10.93;;;9.63;;
5351;SDS011;2698;51.454;6.736;2023-05-13T06:46:09;13.67;;;9.37;;
5351;SDS011;2698;51.454;6.736;2023-05-13T06:48:37;11.10;;;8.67;;
5351;SDS011;2698;51.454;6.736;2023-05-13T06:51:05;14.30;;;8.83;;
5351;SDS011;2698;51.454;6.736;2023-05-13T06:53:32;21.67;;;9.20;;
5351;SDS011;2698;51.454;6.736;2023-05-13T06:55:59;14.40;;;8.77;;
5351;SDS011;2698;51.454;6.736;2023-05-13T06:58:26;12.47;;;7.80;;
5351;SDS011;2698;51.454;6.736;2023-05-13T07:00:53;13.50;;;8.00;;
5351;SDS011;2698;51.454;6.736;2023-05-13T07:03:20;16.00;;;9.43;;
5351;SDS011;2698;51.454;6.736;2023-05-13T07:05:48;9.93;;;7.90;;
5351;SDS011;2698;51.454;6.736;2023-05-13T07:08:15;13.70;;;8.07;;
5351;SDS011;2698;51.454;6.736;2023-05-13T07:10:42;15.53;;;7.90;;
5351;SDS011;2698;51.454;6.736;2023-05-13T07:13:10;8.63;;;7.87;;
5351;SDS011;2698;51.454;6.736;2023-05-13T07:15:37;15.63;;;7.70;;
5351;SDS011;2698;51.454;6.736;2023-05-13T07:18:04;13.20;;;7.40;;
5351;SDS011;2698;51.454;6.736;2023-05-13T07:20:31;14.67;;;9.77;;
5351;SDS011;2698;51.454;6.736;2023-05-13T07:23:00;39.33;;;16.80;;
5351;SDS011;2698;51.454;6.736;2023-05-13T07:25:27;23.67;;;13.50;;
5351;SDS011;2698;51.454;6.736;2023-05-13T07:27:54;14.93;;;10.57;;
5351;SDS011;2698;51.454;6.736;2023-05-13T07:30:21;12.83;;;10.20;;
5351;SDS011;2698;51.454;6.736;2023-05-13T07:32:48;11.10;;;7.47;;
5351;SDS011;2698;51.454;6.736;2023-05-13T07:35:15;9.50;;;7.53;;
5351;SDS011;2698;51.454;6.736;2023-05-13T07:37:42;11.13;;;8.70;;
5351;SDS011;2698;51.454;6.736;2023-05-13T07:40:11;22.87;;;12.10;;
5351;SDS011;2698;51.454;6.736;2023-05-13T07:42:38;15.60;;;9.53;;
5351;SDS011;2698;51.454;6.736;2023-05-13T07:45:06;12.40;;;8.37;;
5351;SDS011;2698;51.454;6.736;2023-05-13T07:47:33;9.90;;;7.67;;
5351;SDS011;2698;51.454;6.736;2023-05-13T07:50:00;9.30;;;6.57;;
5351;SDS011;2698;51.454;6.736;2023-05-13T07:52:27;8.60;;;7.60;;
5351;SDS011;2698;51.454;6.736;2023-05-13T07:54:54;12.33;;;8.67;;
5351;SDS011;2698;51.454;6.736;2023-05-13T07:57:23;11.97;;;7.73;;
5351;SDS011;2698;51.454;6.736;2023-05-13T07:59:50;16.77;;;7.80;;
5351;SDS011;2698;51.454;6.736;2023-05-13T08:02:18;10.37;;;8.20;;
5351;SDS011;2698;51.454;6.736;2023-05-13T08:04:45;16.80;;;9.73;;
5351;SDS011;2698;51.454;6.736;2023-05-13T08:07:12;12.80;;;7.43;;
5351;SDS011;2698;51.454;6.736;2023-05-13T08:09:39;9.90;;;7.00;;
5351;SDS011;2698;51.454;6.736;2023-05-13T08:12:07;8.70;;;7.67;;
5351;SDS011;2698;51.454;6.736;2023-05-13T08:14:35;10.70;;;7.23;;
5351;SDS011;2698;51.454;6.736;2023-05-13T08:17:03;12.07;;;7.77;;
5351;SDS011;2698;51.454;6.736;2023-05-13T08:19:31;16.07;;;10.37;;
5351;SDS011;2698;51.454;6.736;2023-05-13T08:21:58;16.10;;;8.53;;
5351;SDS011;2698;51.454;6.736;2023-05-13T08:24:25;12.90;;;8.10;;
5351;SDS011;2698;51.454;6.736;2023-05-13T08:26:52;10.33;;;6.93;;
5351;SDS011;2698;51.454;6.736;2023-05-13T08:29:19;7.77;;;7.07;;
5351;SDS011;2698;51.454;6.736;2023-05-13T08:31:48;12.90;;;6.93;;
5351;SDS011;2698;51.454;6.736;2023-05-13T08:34:15;11.00;;;6.27;;
5351;SDS011;2698;51.454;6.736;2023-05-13T08:36:42;9.70;;;7.13;;
5351;SDS011;2698;51.454;6.736;2023-05-13T08:39:09;7.20;;;5.80;;
5351;SDS011;2698;51.454;6.736;2023-05-13T08:41:36;15.27;;;6.70;;
5351;SDS011;2698;51.454;6.736;2023-05-13T08:44:04;12.40;;;6.90;;
5351;SDS011;2698;51.454;6.736;2023-05-13T08:46:32;9.80;;;6.27;;
5351;SDS011;2698;51.454;6.736;2023-05-13T08:49:01;11.23;;;6.37;;
5351;SDS011;2698;51.454;6.736;2023-05-13T08:51:28;19.80;;;5.90;;
5351;SDS011;2698;51.454;6.736;2023-05-13T08:53:56;9.83;;;6.73;;
5351;SDS011;2698;51.454;6.736;2023-05-13T08:56:23;13.33;;;6.03;;
5351;SDS011;2698;51.454;6.736;2023-05-13T08:58:52;16.80;;;6.30;;
5351;SDS011;2698;51.454;6.736;2023-05-13T09:01:20;8.20;;;6.90;;
5351;SDS011;2698;51.454;6.736;2023-05-13T09:03:51;12.33;;;7.40;;
5351;SDS011;2698;51.454;6.736;2023-05-13T09:06:19;18.50;;;7.10;;
5351;SDS011;2698;51.454;6.736;2023-05-13T09:08:47;19.33;;;7.87;;
5351;SDS011;2698;51.454;6.736;2023-05-13T09:11:14;10.90;;;6.43;;
5351;SDS011;2698;51.454;6.736;2023-05-13T09:13:42;9.17;;;7.33;;
5351;SDS011;2698;51.454;6.736;2023-05-13T09:16:09;10.73;;;6.70;;
5351;SDS011;2698;51.454;6.736;2023-05-13T09:18:38;8.50;;;6.47;;
5351;SDS011;2698;51.454;6.736;2023-05-13T09:21:21;8.10;;;7.30;;
5351;SDS011;2698;51.454;6.736;2023-05-13T09:23:52;7.40;;;6.57;;
5351;SDS011;2698;51.454;6.736;2023-05-13T09:26:28;14.93;;;6.70;;
5351;SDS011;2698;51.454;6.736;2023-05-13T09:29:12;9.10;;;6.13;;
5351;SDS011;2698;51.454;6.736;2023-05-13T09:31:40;9.10;;;5.93;;
5351;SDS011;2698;51.454;6.736;2023-05-13T09:34:07;10.33;;;6.80;;
5351;SDS011;2698;51.454;6.736;2023-05-13T09:36:35;15.23;;;6.10;;
5351;SDS011;2698;51.454;6.736;2023-05-13T09:39:03;10.57;;;5.50;;
5351;SDS011;2698;51.454;6.736;2023-05-13T09:41:31;9.80;;;5.90;;
5351;SDS011;2698;51.454;6.736;2023-05-13T09:44:00;11.50;;;6.70;;
5351;SDS011;2698;51.454;6.736;2023-05-13T09:46:27;7.77;;;6.30;;
5351;SDS011;2698;51.454;6.736;2023-05-13T09:48:56;7.67;;;5.10;;
5351;SDS011;2698;51.454;6.736;2023-05-13T09:51:26;6.50;;;5.43;;
5351;SDS011;2698;51.454;6.736;2023-05-13T09:54:01;12.53;;;5.13;;
5351;SDS011;2698;51.454;6.736;2023-05-13T09:56:28;96.10;;;46.73;;
5351;SDS011;2698;51.454;6.736;2023-05-13T09:58:56;38.20;;;16.50;;
5351;SDS011;2698;51.454;6.736;2023-05-13T10:01:23;17.70;;;11.50;;
5351;SDS011;2698;51.454;6.736;2023-05-13T10:03:50;17.90;;;6.90;;
5351;SDS011;2698;51.454;6.736;2023-05-13T10:06:18;6.93;;;5.00;;
5351;SDS011;2698;51.454;6.736;2023-05-13T10:08:47;6.10;;;5.10;;
5351;SDS011;2698;51.454;6.736;2023-05-13T10:11:17;9.53;;;5.00;;
5351;SDS011;2698;51.454;6.736;2023-05-13T10:13:44;9.93;;;4.30;;
5351;SDS011;2698;51.454;6.736;2023-05-13T10:16:13;9.07;;;5.00;;
5351;SDS011;2698;51.454;6.736;2023-05-13T10:18:42;8.30;;;5.20;;
5351;SDS011;2698;51.454;6.736;2023-05-13T10:21:09;7.50;;;4.77;;
5351;SDS011;2698;51.454;6.736;2023-05-13T10:23:38;7.20;;;5.07;;
5351;SDS011;2698;51.454;6.736;2023-05-13T10:26:05;8.20;;;3.83;;
5351;SDS011;2698;51.454;6.736;2023-05-13T10:28:33;9.77;;;5.10;;
5351;SDS011;2698;51.454;6.736;2023-05-13T10:31:01;9.83;;;4.47;;
5351;SDS011;2698;51.454;6.736;2023-05-13T10:33:28;10.87;;;5.23;;
5351;SDS011;2698;51.454;6.736;2023-05-13T10:35:59;11.50;;;4.80;;
5351;SDS011;2698;51.454;6.736;2023-05-13T10:38:31;17.23;;;4.97;;
5351;SDS011;2698;51.454;6.736;2023-05-13T10:41:09;10.47;;;5.27;;
5351;SDS011;2698;51.454;6.736;2023-05-13T10:43:38;9.40;;;4.30;;
5351;SDS011;2698;51.454;6.736;2023-05-13T10:46:06;13.47;;;4.93;;
5351;SDS011;2698;51.454;6.736;2023-05-13T10:48:37;4.43;;;3.90;;
5351;SDS011;2698;51.454;6.736;2023-05-13T10:51:04;7.23;;;4.60;;
5351;SDS011;2698;51.454;6.736;2023-05-13T10:53:35;7.60;;;4.53;;
5351;SDS011;2698;51.454;6.736;2023-05-13T10:56:03;11.80;;;4.80;;
5351;SDS011;2698;51.454;6.736;2023-05-13T10:58:33;12.03;;;5.80;;
5351;SDS011;2698;51.454;6.736;2023-05-13T11:01:15;12.37;;;5.03;;
5351;SDS011;2698;51.454;6.736;2023-05-13T11:03:50;8.50;;;4.63;;
5351;SDS011;2698;51.454;6.736;2023-05-13T11:06:18;14.17;;;5.13;;
5351;SDS011;2698;51.454;6.736;2023-05-13T11:08:45;9.53;;;5.20;;
5351;SDS011;2698;51.454;6.736;2023-05-13T11:11:16;9.40;;;5.00;;
5351;SDS011;2698;51.454;6.736;2023-05-13T11:13:43;7.60;;;4.70;;
5351;SDS011;2698;51.454;6.736;2023-05-13T11:16:11;9.27;;;5.67;;
5351;SDS011;2698;51.454;6.736;2023-05-13T11:18:40;8.27;;;4.97;;
5351;SDS011;2698;51.454;6.736;2023-05-13T11:21:07;10.83;;;6.33;;
5351;SDS011;2698;51.454;6.736;2023-05-13T11:23:48;7.90;;;5.00;;
5351;SDS011;2698;51.454;6.736;2023-05-13T11:26:16;6.20;;;4.50;;
5351;SDS011;2698;51.454;6.736;2023-05-13T11:28:58;12.17;;;4.30;;
5351;SDS011;2698;51.454;6.736;2023-05-13T11:31:26;5.60;;;4.20;;
5351;SDS011;2698;51.454;6.736;2023-05-13T11:34:08;12.17;;;4.33;;
5351;SDS011;2698;51.454;6.736;2023-05-13T11:36:36;11.43;;;4.63;;
5351;SDS011;2698;51.454;6.736;2023-05-13T11:39:04;14.90;;;5.03;;
5351;SDS011;2698;51.454;6.736;2023-05-13T11:41:31;12.47;;;6.17;;
5351;SDS011;2698;51.454;6.736;2023-05-13T11:43:58;7.50;;;4.53;;
5351;SDS011;2698;51.454;6.736;2023-05-13T11:46:27;5.93;;;4.40;;
5351;SDS011;2698;51.454;6.736;2023-05-13T11:48:54;14.70;;;5.40;;
5351;SDS011;2698;51.454;6.736;2023-05-13T11:51:22;5.37;;;4.87;;
5351;SDS011;2698;51.454;6.736;2023-05-13T11:53:50;9.90;;;6.13;;
5351;SDS011;2698;51.454;6.736;2023-05-13T11:56:17;16.23;;;6.20;;
5351;SDS011;2698;51.454;6.736;2023-05-13T11:58:45;9.43;;;5.53;;
5351;SDS011;2698;51.454;6.736;2023-05-13T12:01:15;13.83;;;4.70;;
5351;SDS011;2698;51.454;6.736;2023-05-13T12:03:42;11.53;;;7.37;;
5351;SDS011;2698;51.454;6.736;2023-05-13T12:06:09;11.57;;;4.70;;
5351;SDS011;2698;51.454;6.736;2023-05-13T12:08:43;6.93;;;5.60;;
5351;SDS011;2698;51.454;6.736;2023-05-13T12:11:10;9.43;;;5.50;;
5351;SDS011;2698;51.454;6.736;2023-05-13T12:13:38;8.30;;;4.63;;
5351;SDS011;2698;51.454;6.736;2023-05-13T12:16:05;6.43;;;4.30;;
5351;SDS011;2698;51.454;6.736;2023-05-13T12:18:32;8.30;;;4.30;;
5351;SDS011;2698;51.454;6.736;2023-05-13T12:21:12;18.30;;;6.87;;
5351;SDS011;2698;51.454;6.736;2023-05-13T12:23:39;7.30;;;4.80;;
5351;SDS011;2698;51.454;6.736;2023-05-13T12:26:07;6.10;;;4.67;;
5351;SDS011;2698;51.454;6.736;2023-05-13T12:28:34;9.20;;;4.70;;
5351;SDS011;2698;51.454;6.736;2023-05-13T12:31:02;9.00;;;4.37;;
5351;SDS011;2698;51.454;6.736;2023-05-13T12:33:30;8.93;;;5.20;;
5351;SDS011;2698;51.454;6.736;2023-05-13T12:38:39;23.03;;;9.90;;
5351;SDS011;2698;51.454;6.736;2023-05-13T12:41:20;19.40;;;10.90;;
5351;SDS011;2698;51.454;6.736;2023-05-13T12:43:49;12.03;;;7.80;;
5351;SDS011;2698;51.454;6.736;2023-05-13T12:46:16;6.83;;;4.80;;
5351;SDS011;2698;51.454;6.736;2023-05-13T12:48:44;23.50;;;8.47;;
5351;SDS011;2698;51.454;6.736;2023-05-13T12:51:11;7.50;;;6.03;;
5351;SDS011;2698;51.454;6.736;2023-05-13T12:53:39;7.10;;;5.23;;
5351;SDS011;2698;51.454;6.736;2023-05-13T12:56:06;12.80;;;6.17;;
5351;SDS011;2698;51.454;6.736;2023-05-13T12:58:35;15.17;;;5.60;;
5351;SDS011;2698;51.454;6.736;2023-05-13T13:01:02;14.77;;;8.67;;
5351;SDS011;2698;51.454;6.736;2023-05-13T13:03:30;22.77;;;11.90;;
5351;SDS011;2698;51.454;6.736;2023-05-13T13:05:57;17.83;;;9.97;;
5351;SDS011;2698;51.454;6.736;2023-05-13T13:08:24;17.77;;;10.17;;
5351;SDS011;2698;51.454;6.736;2023-05-13T13:10:51;11.70;;;6.00;;
5351;SDS011;2698;51.454;6.736;2023-05-13T13:13:18;8.50;;;4.30;;
5351;SDS011;2698;51.454;6.736;2023-05-13T13:15:47;18.77;;;4.37;;
5351;SDS011;2698;51.454;6.736;2023-05-13T13:18:14;10.10;;;4.40;;
5351;SDS011;2698;51.454;6.736;2023-05-13T13:20:41;5.13;;;3.70;;
5351;SDS011;2698;51.454;6.736;2023-05-13T13:23:08;9.73;;;4.80;;
5351;SDS011;2698;51.454;6.736;2023-05-13T13:25:35;4.70;;;3.97;;
5351;SDS011;2698;51.454;6.736;2023-05-13T13:28:02;6.93;;;5.67;;
5351;SDS011;2698;51.454;6.736;2023-05-13T13:30:30;4.77;;;4.30;;
5351;SDS011;2698;51.454;6.736;2023-05-13T13:32:58;10.00;;;4.63;;
5351;SDS011;2698;51.454;6.736;2023-05-13T13:35:25;6.97;;;4.03;;
5351;SDS011;2698;51.454;6.736;2023-05-13T13:37:52;4.80;;;4.40;;
5351;SDS011;2698;51.454;6.736;2023-05-13T13:40:20;6.43;;;4.03;;
5351;SDS011;2698;51.454;6.736;2023-05-13T13:42:47;5.10;;;3.60;;
5351;SDS011;2698;51.454;6.736;2023-05-13T13:45:14;5.33;;;4.00;;
5351;SDS011;2698;51.454;6.736;2023-05-13T13:47:41;6.80;;;4.20;;
5351;SDS011;2698;51.454;6.736;2023-05-13T13:50:10;11.47;;;4.67;;
5351;SDS011;2698;51.454;6.736;2023-05-13T13:52:37;5.50;;;4.97;;
5351;SDS011;2698;51.454;6.736;2023-05-13T13:55:05;6.00;;;4.40;;
5351;SDS011;2698;51.454;6.736;2023-05-13T13:57:32;10.00;;;4.17;;
5351;SDS011;2698;51.454;6.736;2023-05-13T13:59:59;10.53;;;4.50;;
5351;SDS011;2698;51.454;6.736;2023-05-13T14:02:26;6.97;;;5.20;;
5351;SDS011;2698;51.454;6.736;2023-05-13T14:04:53;16.60;;;7.93;;
5351;SDS011;2698;51.454;6.736;2023-05-13T14:07:22;15.60;;;5.77;;
5351;SDS011;2698;51.454;6.736;2023-05-13T14:09:49;9.40;;;4.50;;
5351;SDS011;2698;51.454;6.736;2023-05-13T14:12:16;13.60;;;4.63;;
5351;SDS011;2698;51.454;6.736;2023-05-13T14:14:43;10.90;;;4.20;;
5351;SDS011;2698;51.454;6.736;2023-05-13T14:17:10;17.53;;;4.87;;
5351;SDS011;2698;51.454;6.736;2023-05-13T14:19:37;12.70;;;6.33;;
5351;SDS011;2698;51.454;6.736;2023-05-13T14:22:04;17.60;;;9.10;;
5351;SDS011;2698;51.454;6.736;2023-05-13T14:24:33;21.87;;;9.60;;
5351;SDS011;2698;51.454;6.736;2023-05-13T14:27:00;10.77;;;5.33;;
5351;SDS011;2698;51.454;6.736;2023-05-13T14:29:27;6.57;;;4.17;;
5351;SDS011;2698;51.454;6.736;2023-05-13T14:31:54;24.13;;;4.93;;
5351;SDS011;2698;51.454;6.736;2023-05-13T14:34:21;9.63;;;6.07;;
5351;SDS011;2698;51.454;6.736;2023-05-13T14:36:49;21.83;;;4.83;;
5351;SDS011;2698;51.454;6.736;2023-05-13T14:39:16;7.63;;;4.40;;
5351;SDS011;2698;51.454;6.736;2023-05-13T14:41:45;6.23;;;4.23;;
5351;SDS011;2698;51.454;6.736;2023-05-13T14:44:12;8.40;;;4.70;;
5351;SDS011;2698;51.454;6.736;2023-05-13T14:46:39;6.23;;;4.00;;
5351;SDS011;2698;51.454;6.736;2023-05-13T14:49:06;10.87;;;5.37;;
5351;SDS011;2698;51.454;6.736;2023-05-13T14:51:33;4.17;;;3.87;;
5351;SDS011;2698;51.454;6.736;2023-05-13T14:54:06;12.47;;;4.80;;
5351;SDS011;2698;51.454;6.736;2023-05-13T14:56:34;8.77;;;4.10;;
5351;SDS011;2698;51.454;6.736;2023-05-13T14:59:03;21.60;;;6.10;;
5351;SDS011;2698;51.454;6.736;2023-05-13T15:01:30;12.80;;;6.20;;
5351;SDS011;2698;51.454;6.736;2023-05-13T15:03:57;5.47;;;4.97;;
5351;SDS011;2698;51.454;6.736;2023-05-13T15:06:24;10.73;;;5.20;;
5351;SDS011;2698;51.454;6.736;2023-05-13T15:08:53;7.80;;;5.03;;